Time;durP1;ratioP1;P1;durP2;ratioP2;P2;SDS_P1;SDS_P2;PMS_P1;PMS_P2;Temp;Humidity;BMP_temperature;BMP_pressure;BME280_temperature;BME280_humidity;BME280_pressure;Samples;Min_cycle;Max_cycle;Signal;HPM_P1;HPM_P2
2023/02/09 00:01:07;;;;;;;65.47;33.33;;;-1.70;99.90;;;;;;5093660;28;20525;-78
2023/02/09 00:03:34;;;;;;;53.95;32.25;;;-1.80;99.90;;;;;;5092855;28;20476;-76
2023/02/09 00:06:01;;;;;;;54.42;31.92;;;-1.80;99.90;;;;;;5093063;28;20206;-77
2023/02/09 00:08:28;;;;;;;58.15;30.35;;;-1.70;99.90;;;;;;5092870;28;20685;-76
2023/02/09 00:10:54;;;;;;;59.47;32.28;;;-1.70;99.90;;;;;;5094236;28;20176;-81
2023/02/09 00:13:23;;;;;;;60.38;32.10;;;-1.60;99.90;;;;;;5092803;28;20235;-82
2023/02/09 00:15:58;;;;;;;63.58;35.40;;;-1.70;99.90;;;;;;5094234;28;20183;-76
2023/02/09 00:18:25;;;;;;;56.35;32.13;;;-1.70;99.90;;;;;;5094366;28;20556;-77
2023/02/09 00:21:01;;;;;;;58.20;31.88;;;-1.70;99.90;;;;;;5092844;28;20184;-76
2023/02/09 00:23:28;;;;;;;60.20;32.38;;;-1.70;99.90;;;;;;5092632;28;20212;-76
2023/02/09 00:25:57;;;;;;;67.07;33.50;;;-1.90;99.90;;;;;;5094013;28;20646;-82
2023/02/09 00:28:23;;;;;;;54.80;31.40;;;-2.10;99.90;;;;;;5093832;28;20204;-82
2023/02/09 00:30:48;;;;;;;63.50;34.13;;;-2.20;99.90;;;;;;5093555;28;20169;-77
2023/02/09 00:33:14;;;;;;;51.83;32.00;;;-2.20;99.90;;;;;;5092565;28;20204;-82
2023/02/09 00:35:41;;;;;;;66.83;36.27;;;-2.10;99.90;;;;;;5092916;28;20187;-82
2023/02/09 00:38:08;;;;;;;63.28;36.95;;;-2.00;99.90;;;;;;5094137;28;20820;-83
2023/02/09 00:40:34;;;;;;;65.43;34.50;;;-1.90;99.90;;;;;;5092527;28;20589;-82
2023/02/09 00:42:59;;;;;;;62.57;36.63;;;-1.90;99.90;;;;;;5092302;28;20212;-77
2023/02/09 00:45:25;;;;;;;67.37;37.87;;;-2.00;99.90;;;;;;5093766;28;20428;-81
2023/02/09 00:47:51;;;;;;;83.50;40.30;;;-2.00;99.90;;;;;;5092599;28;20725;-77
2023/02/09 00:50:17;;;;;;;74.13;39.53;;;-2.10;99.90;;;;;;5093885;28;20696;-82
2023/02/09 00:52:43;;;;;;;68.78;38.67;;;-2.20;99.90;;;;;;5092414;28;20451;-77
2023/02/09 00:55:08;;;;;;;63.40;38.63;;;-2.30;99.90;;;;;;5092603;28;20176;-82
2023/02/09 00:57:34;;;;;;;76.00;41.60;;;-2.30;99.90;;;;;;5092131;28;20200;-82
2023/02/09 01:00:01;;;;;;;76.05;39.08;;;-2.40;99.90;;;;;;5092441;28;20290;-77
2023/02/09 01:02:27;;;;;;;75.32;40.72;;;-2.30;99.90;;;;;;5092113;28;20207;-77
2023/02/09 01:04:52;;;;;;;68.13;39.27;;;-2.20;99.90;;;;;;5092390;28;20180;-79
2023/02/09 01:07:18;;;;;;;77.83;40.37;;;-2.30;99.90;;;;;;5093548;28;20942;-82
2023/02/09 01:09:44;;;;;;;70.40;40.20;;;-2.40;99.90;;;;;;5092309;28;20217;-78
2023/02/09 01:12:10;;;;;;;69.37;40.30;;;-2.30;99.90;;;;;;5092238;28;20303;-83
2023/02/09 01:14:37;;;;;;;83.45;41.97;;;-2.30;99.90;;;;;;5092342;28;20270;-83
2023/02/09 01:17:04;;;;;;;72.85;40.00;;;-2.20;99.90;;;;;;5093391;28;20215;-77
2023/02/09 01:19:29;;;;;;;67.93;38.58;;;-2.10;99.90;;;;;;5092304;28;20180;-77
2023/02/09 01:21:55;;;;;;;64.73;38.97;;;-2.20;99.90;;;;;;5093771;28;20581;-82
2023/02/09 01:24:21;;;;;;;69.93;39.63;;;-2.40;99.90;;;;;;5092713;28;20220;-76
2023/02/09 01:26:47;;;;;;;71.40;40.40;;;-2.40;99.90;;;;;;5093383;28;20405;-76
2023/02/09 01:29:14;;;;;;;77.07;41.83;;;-2.40;99.90;;;;;;5093908;28;20271;-76
2023/02/09 01:31:40;;;;;;;75.38;40.35;;;-2.50;99.90;;;;;;5093325;28;20184;-77
2023/02/09 01:34:06;;;;;;;80.87;41.57;;;-2.50;99.90;;;;;;5091971;28;20204;-77
2023/02/09 01:36:33;;;;;;;76.85;40.72;;;-2.50;99.90;;;;;;5093600;28;20409;-83
2023/02/09 01:39:00;;;;;;;81.32;41.40;;;-2.50;99.90;;;;;;5093622;28;20200;-76
2023/02/09 01:41:27;;;;;;;85.45;42.50;;;-2.60;99.90;;;;;;5094745;28;20652;-83
2023/02/09 01:44:05;;;;;;;67.60;38.17;;;-2.60;99.90;;;;;;5097367;28;20235;-76
2023/02/09 01:46:33;;;;;;;71.05;39.45;;;-2.60;99.90;;;;;;5095692;28;20184;-77
2023/02/09 01:49:12;;;;;;;74.70;38.53;;;-2.60;99.90;;;;;;5097453;28;20218;-83
2023/02/09 01:51:51;;;;;;;67.07;40.38;;;-2.60;99.90;;;;;;5096895;28;20194;-83
2023/02/09 01:54:33;;;;;;;70.95;40.17;;;-2.70;99.90;;;;;;5095588;28;20173;-77
2023/02/09 01:57:05;;;;;;;76.10;41.15;;;-2.80;99.90;;;;;;5095521;28;20654;-77
2023/02/09 01:59:33;;;;;;;75.32;39.42;;;-2.80;99.90;;;;;;5096865;28;20555;-76
2023/02/09 02:01:59;;;;;;;73.35;40.75;;;-2.70;99.90;;;;;;5096548;28;20164;-77
2023/02/09 02:04:25;;;;;;;78.05;40.88;;;-2.60;99.90;;;;;;5096703;28;20173;-77
2023/02/09 02:06:56;;;;;;;76.90;42.08;;;-2.60;99.90;;;;;;5096496;28;20183;-77
2023/02/09 02:09:23;;;;;;;73.78;41.25;;;-2.70;99.90;;;;;;5095402;28;20638;-83
2023/02/09 02:11:49;;;;;;;85.60;44.58;;;-2.70;99.90;;;;;;5096428;28;20172;-77
2023/02/09 02:14:44;;;;;;;80.73;41.40;;;-2.70;99.90;;;;;;5112236;28;20233;-77
2023/02/09 02:17:12;;;;;;;73.07;41.55;;;-2.80;99.90;;;;;;5099528;28;20215;-83
2023/02/09 02:20:17;;;;;;;83.85;41.42;;;-2.80;99.90;;;;;;5098402;28;20219;-82
2023/02/09 02:23:01;;;;;;;83.32;43.25;;;-2.80;99.90;;;;;;5116557;28;20210;-78
2023/02/09 02:25:39;;;;;;;75.93;43.05;;;-2.80;99.90;;;;;;5116719;28;20203;-76
2023/02/09 02:28:04;;;;;;;78.70;43.50;;;-2.80;99.90;;;;;;5098403;28;20299;-83
2023/02/09 02:30:49;;;;;;;85.03;42.40;;;-2.90;99.90;;;;;;5098218;28;20639;-82
2023/02/09 02:33:17;;;;;;;77.25;42.40;;;-2.90;99.90;;;;;;5116806;28;20440;-83
2023/02/09 02:35:52;;;;;;;71.03;41.42;;;-3.00;99.90;;;;;;5116636;28;20176;-78
2023/02/09 02:38:38;;;;;;;66.35;40.05;;;-2.90;99.90;;;;;;5098777;28;20200;-77
2023/02/09 02:41:13;;;;;;;74.47;40.25;;;-3.00;99.90;;;;;;5098352;28;20640;-82
2023/02/09 02:43:51;;;;;;;78.32;41.00;;;-3.10;99.90;;;;;;5097812;28;20302;-77
2023/02/09 02:46:35;;;;;;;77.20;40.95;;;-3.20;99.90;;;;;;5116353;28;20164;-83
2023/02/09 02:49:06;;;;;;;70.78;39.45;;;-3.30;99.90;;;;;;5098082;28;20191;-77
2023/02/09 02:51:41;;;;;;;76.68;38.90;;;-3.20;99.90;;;;;;5097368;28;20678;-76
2023/02/09 02:54:13;;;;;;;75.35;39.70;;;-3.20;99.90;;;;;;5097912;28;20558;-81
2023/02/09 02:56:46;;;;;;;70.63;38.42;;;-3.10;99.90;;;;;;5097828;28;20176;-78
2023/02/09 02:59:16;;;;;;;73.97;39.13;;;-3.00;99.90;;;;;;5097961;28;20192;-77
2023/02/09 03:01:51;;;;;;;71.53;39.45;;;-3.10;99.90;;;;;;5097651;28;20180;-82
2023/02/09 03:04:17;;;;;;;68.55;39.53;;;-3.10;99.90;;;;;;5097577;28;20215;-82
2023/02/09 03:06:43;;;;;;;77.95;38.92;;;-3.30;99.90;;;;;;5115792;28;20176;-77
2023/02/09 03:09:09;;;;;;;76.10;39.83;;;-3.40;99.90;;;;;;5097837;28;20179;-83
2023/02/09 03:11:44;;;;;;;73.75;39.65;;;-3.40;99.90;;;;;;5097444;28;20186;-81
2023/02/09 03:14:25;;;;;;;73.50;41.00;;;-3.40;99.90;;;;;;5094069;28;20238;-82
2023/02/09 03:17:01;;;;;;;65.40;39.35;;;-3.50;99.90;;;;;;5093845;28;20172;-77
2023/02/09 03:19:50;;;;;;;80.93;43.63;;;-3.50;99.90;;;;;;5093956;28;20645;-77
2023/02/09 03:22:41;;;;;;;70.47;37.80;;;-3.40;99.90;;;;;;5095742;28;20533;-77
2023/02/09 03:25:26;;;;;;;71.72;38.78;;;-3.30;99.90;;;;;;5095291;28;20164;-76
2023/02/09 03:27:55;;;;;;;69.00;38.50;;;-3.20;99.90;;;;;;5093810;28;20532;-77
2023/02/09 03:30:22;;;;;;;71.85;37.33;;;-3.20;99.90;;;;;;5093889;28;20177;-81
2023/02/09 03:32:48;;;;;;;81.63;39.90;;;-3.30;99.90;;;;;;5093535;28;20205;-77
2023/02/09 03:35:16;;;;;;;69.23;38.07;;;-3.50;99.90;;;;;;5094945;28;20572;-76
2023/02/09 03:37:42;;;;;;;76.95;40.05;;;-3.50;99.90;;;;;;5094934;28;21001;-82
2023/02/09 03:40:09;;;;;;;77.15;42.53;;;-3.50;99.90;;;;;;5093590;28;20263;-81
2023/02/09 03:42:35;;;;;;;76.75;41.20;;;-3.60;99.90;;;;;;5093319;28;20216;-83
2023/02/09 03:45:00;;;;;;;68.83;38.40;;;-3.70;99.90;;;;;;5094717;28;20519;-76
2023/02/09 03:47:26;;;;;;;76.03;40.10;;;-3.70;99.90;;;;;;5093341;28;20451;-76
2023/02/09 03:49:52;;;;;;;75.80;38.50;;;-3.60;99.90;;;;;;5095117;28;20191;-78
2023/02/09 03:52:18;;;;;;;77.10;39.67;;;-3.50;99.90;;;;;;5093235;28;20253;-77
2023/02/09 03:54:44;;;;;;;78.37;42.20;;;-3.60;99.90;;;;;;5094689;28;20185;-81
2023/02/09 03:57:09;;;;;;;66.78;37.40;;;-3.60;99.90;;;;;;5093488;28;20434;-82
2023/02/09 03:59:39;;;;;;;77.03;41.07;;;-3.50;99.90;;;;;;5094480;28;20607;-81
2023/02/09 04:02:06;;;;;;;80.40;39.63;;;-3.60;99.90;;;;;;5092910;28;20443;-77
2023/02/09 04:04:32;;;;;;;82.03;42.58;;;-3.80;99.90;;;;;;5094179;28;20188;-82
2023/02/09 04:06:58;;;;;;;90.57;45.70;;;-3.90;99.90;;;;;;5092918;28;20180;-82
2023/02/09 04:09:25;;;;;;;77.80;41.70;;;-4.00;99.90;;;;;;5093007;28;20207;-80
2023/02/09 04:11:51;;;;;;;80.95;44.45;;;-4.10;99.90;;;;;;5094078;28;20169;-76
2023/02/09 04:14:17;;;;;;;79.30;41.35;;;-4.00;99.90;;;;;;5092946;28;20331;-76
2023/02/09 04:16:43;;;;;;;81.93;41.80;;;-4.00;99.90;;;;;;5092837;28;20176;-81
2023/02/09 04:19:09;;;;;;;80.30;40.90;;;-4.00;99.90;;;;;;5093130;28;20176;-75
2023/02/09 04:21:36;;;;;;;79.80;44.03;;;-4.00;99.90;;;;;;5094067;28;20195;-76
2023/02/09 04:24:02;;;;;;;66.07;39.08;;;-3.90;99.90;;;;;;5093895;28;20226;-75
2023/02/09 04:26:27;;;;;;;67.43;36.67;;;-3.80;99.90;;;;;;5094131;28;20177;-77
2023/02/09 04:28:53;;;;;;;63.63;34.47;;;-4.00;99.90;;;;;;5092843;28;20433;-75
2023/02/09 04:31:19;;;;;;;68.73;39.07;;;-4.20;99.90;;;;;;5094066;28;20187;-78
2023/02/09 04:33:44;;;;;;;74.83;40.07;;;-4.10;99.90;;;;;;5094319;28;20196;-82
2023/02/09 04:36:11;;;;;;;80.47;41.27;;;-4.10;99.90;;;;;;5092770;28;20264;-80
2023/02/09 04:38:36;;;;;;;72.18;39.92;;;-4.00;99.90;;;;;;5094285;28;20763;-76
2023/02/09 04:41:03;;;;;;;71.07;38.70;;;-4.00;99.90;;;;;;5093958;28;20263;-80
2023/02/09 04:43:30;;;;;;;67.45;34.83;;;-3.90;99.90;;;;;;5092702;28;20303;-76
2023/02/09 04:45:56;;;;;;;75.47;39.60;;;-4.00;99.90;;;;;;5093958;28;20637;-80
2023/02/09 04:48:23;;;;;;;73.27;43.00;;;-4.00;99.90;;;;;;5092615;28;20208;-80
2023/02/09 04:50:49;;;;;;;91.97;53.40;;;-4.00;99.90;;;;;;5092430;28;20449;-80
2023/02/09 04:53:15;;;;;;;75.97;40.45;;;-4.00;99.90;;;;;;5092462;28;20205;-76
2023/02/09 04:55:42;;;;;;;72.28;41.05;;;-4.10;99.90;;;;;;5092269;28;20310;-78
2023/02/09 05:00:55;;;;;;;80.07;38.22;;;-4.10;99.90;;;;;;5091438;28;20542;-80
2023/02/09 05:03:21;;;;;;;85.10;38.80;;;-4.10;99.90;;;;;;5088754;28;20605;-81
2023/02/09 05:05:47;;;;;;;73.53;39.17;;;-4.20;99.90;;;;;;5092198;28;20238;-80
2023/02/09 05:08:12;;;;;;;78.80;41.90;;;-4.30;99.90;;;;;;5093338;28;20204;-79
2023/02/09 05:10:38;;;;;;;66.70;40.00;;;-4.30;99.90;;;;;;5084137;28;20225;-78
2023/02/09 05:13:04;;;;;;;68.27;30.70;;;-4.40;99.90;;;;;;5098709;28;20247;-81
2023/02/09 05:15:29;;;;;;;75.50;37.03;;;-4.30;99.90;;;;;;5096740;28;20175;-78
2023/02/09 05:17:55;;;;;;;77.37;39.53;;;-4.00;99.90;;;;;;5117897;28;20184;-81
2023/02/09 05:20:21;;;;;;;74.03;38.27;;;-4.10;99.90;;;;;;5117854;28;20190;-79
2023/02/09 05:22:46;;;;;;;76.67;39.50;;;-4.30;99.90;;;;;;5117950;28;20672;-81
2023/02/09 05:25:12;;;;;;;77.93;40.33;;;-4.60;99.90;;;;;;5114650;27;20226;-79
2023/02/09 05:27:38;;;;;;;112.50;56.60;;;-4.60;99.90;;;;;;5099558;27;20199;-79
2023/02/09 05:30:05;;;;;;;96.07;50.27;;;-4.70;99.90;;;;;;5117741;27;20420;-80
2023/02/09 05:32:30;;;;;;;96.13;47.95;;;-4.80;99.90;;;;;;5110515;28;20482;-79
2023/02/09 05:34:56;;;;;;;101.53;53.63;;;-4.80;99.90;;;;;;5090571;28;20180;-79
2023/02/09 05:37:21;;;;;;;90.37;47.70;;;-4.60;99.90;;;;;;5116891;28;20245;-80
2023/02/09 05:39:48;;;;;;;99.97;51.93;;;-4.40;99.90;;;;;;5099273;28;20544;-80
2023/02/09 05:42:14;;;;;;;108.00;54.17;;;-4.40;99.90;;;;;;5098888;28;20199;-82
2023/02/09 05:44:40;;;;;;;135.47;60.53;;;-4.40;99.90;;;;;;5098887;28;20695;-81
2023/02/09 05:47:06;;;;;;;152.32;65.95;;;-4.50;99.90;;;;;;5098919;28;20249;-80
2023/02/09 05:49:32;;;;;;;117.43;60.37;;;-4.40;99.90;;;;;;5094043;28;20218;-80
2023/02/09 05:51:59;;;;;;;111.32;57.50;;;-4.40;99.90;;;;;;5085480;28;20176;-79
2023/02/09 05:54:24;;;;;;;117.57;60.08;;;-4.30;99.90;;;;;;5098451;28;20661;-82
2023/02/09 05:56:50;;;;;;;112.70;55.80;;;-4.30;99.90;;;;;;5129602;27;20186;-80
2023/02/09 05:59:16;;;;;;;95.57;53.37;;;-4.30;99.90;;;;;;5118091;27;20171;-79
2023/02/09 06:01:42;;;;;;;98.70;51.90;;;-4.40;99.90;;;;;;5117504;27;20394;-80
2023/02/09 06:04:08;;;;;;;107.33;52.70;;;-4.50;99.90;;;;;;5110053;28;20204;-84
2023/02/09 06:06:34;;;;;;;102.80;50.85;;;-4.50;99.90;;;;;;5096075;28;20790;-78
2023/02/09 06:08:59;;;;;;;107.47;52.25;;;-4.50;99.90;;;;;;5106405;27;20250;-84
2023/02/09 06:11:26;;;;;;;109.67;54.93;;;-4.60;99.90;;;;;;5086671;28;20216;-86
2023/02/09 06:13:51;;;;;;;105.45;53.83;;;-4.50;99.90;;;;;;5095865;28;20473;-80
2023/02/09 06:16:17;;;;;;;90.90;48.77;;;-4.50;99.90;;;;;;5092679;28;20188;-80
2023/02/09 06:18:43;;;;;;;100.05;53.15;;;-4.50;99.90;;;;;;5087627;28;20207;-81
2023/02/09 06:21:10;;;;;;;94.63;52.40;;;-4.40;99.90;;;;;;5111742;28;20192;-80
2023/02/09 06:23:36;;;;;;;98.07;51.55;;;-4.40;99.90;;;;;;5094310;27;20215;-78
2023/02/09 06:26:11;;;;;;;97.40;53.95;;;-4.40;99.90;;;;;;5095719;28;20672;-81
2023/02/09 06:28:38;;;;;;;98.40;51.03;;;-4.30;99.90;;;;;;5110827;28;20191;-86
2023/02/09 06:31:05;;;;;;;99.65;53.75;;;-4.30;99.90;;;;;;5092138;28;20263;-85
2023/02/09 06:33:31;;;;;;;113.40;53.65;;;-4.30;99.90;;;;;;5107359;28;20208;-80
2023/02/09 06:35:57;;;;;;;168.68;85.15;;;-4.20;99.90;;;;;;5115167;28;20161;-86
2023/02/09 06:38:23;;;;;;;180.60;89.50;;;-4.00;99.90;;;;;;5086259;28;20200;-82
2023/02/09 06:40:49;;;;;;;180.23;82.80;;;-3.90;99.90;;;;;;5103343;28;20391;-82
2023/02/09 06:43:15;;;;;;;190.93;90.27;;;-3.80;99.90;;;;;;5116076;28;20525;-81
2023/02/09 06:45:40;;;;;;;209.90;97.18;;;-3.70;99.90;;;;;;5116446;28;20248;-83
2023/02/09 06:48:07;;;;;;;238.97;99.47;;;-3.70;99.90;;;;;;5094834;28;20290;-84
2023/02/09 06:50:34;;;;;;;150.93;74.38;;;-3.60;99.90;;;;;;5088777;28;20599;-83
2023/02/09 06:53:00;;;;;;;188.55;86.75;;;-3.70;99.90;;;;;;5098076;27;20203;-82
2023/02/09 06:55:26;;;;;;;131.35;65.18;;;-3.60;99.90;;;;;;5106639;28;20187;-84
2023/02/09 06:57:53;;;;;;;134.67;66.87;;;-3.40;99.90;;;;;;5113176;28;20215;-82
2023/02/09 07:00:20;;;;;;;112.07;57.08;;;-3.30;99.90;;;;;;5075174;28;20189;-84
2023/02/09 07:02:46;;;;;;;102.40;53.97;;;-3.30;99.90;;;;;;5107814;28;20204;-82
2023/02/09 07:05:13;;;;;;;99.03;51.55;;;-3.20;99.90;;;;;;5088306;28;20329;-82
2023/02/09 07:07:39;;;;;;;95.43;51.17;;;-3.10;99.90;;;;;;5085591;28;20196;-84
2023/02/09 07:10:07;;;;;;;91.97;49.72;;;-3.00;99.90;;;;;;5096935;27;20690;-82
2023/02/09 07:12:32;;;;;;;109.30;51.85;;;-2.90;99.90;;;;;;5075360;28;20661;-82
2023/02/09 07:14:59;;;;;;;109.03;51.63;;;-2.80;99.90;;;;;;5074985;28;20177;-82
2023/02/09 07:17:28;;;;;;;120.55;62.50;;;-2.70;99.90;;;;;;5109322;28;20618;-84
2023/02/09 07:19:54;;;;;;;123.13;60.78;;;-2.60;99.90;;;;;;5093460;28;20471;-82
2023/02/09 07:22:21;;;;;;;100.13;49.73;;;-2.50;99.90;;;;;;5107056;28;20223;-83
2023/02/09 07:24:47;;;;;;;85.03;46.95;;;-2.40;99.90;;;;;;5111080;27;20186;-82
2023/02/09 07:27:13;;;;;;;90.00;48.00;;;-2.30;99.90;;;;;;5108271;28;20227;-82
2023/02/09 07:29:39;;;;;;;72.28;40.78;;;-2.20;99.90;;;;;;5089483;28;20769;-83
2023/02/09 07:32:06;;;;;;;84.60;46.00;;;-2.00;99.90;;;;;;5094394;28;20212;-82
2023/02/09 07:34:32;;;;;;;86.95;47.90;;;-1.70;99.90;;;;;;5095072;28;20183;-84
2023/02/09 07:36:58;;;;;;;89.63;46.25;;;-1.50;99.90;;;;;;5094705;28;20294;-83
2023/02/09 07:39:24;;;;;;;81.70;43.72;;;-1.20;99.90;;;;;;5095363;28;20184;-82
2023/02/09 07:41:50;;;;;;;73.73;41.00;;;-0.80;99.90;;;;;;5094411;28;20195;-85
2023/02/09 07:44:15;;;;;;;63.33;39.53;;;-0.50;99.90;;;;;;5094483;28;20476;-83
2023/02/09 07:46:41;;;;;;;72.60;40.60;;;-0.30;99.90;;;;;;5097404;28;20187;-83
2023/02/09 07:49:07;;;;;;;81.10;46.37;;;0.00;99.90;;;;;;5091264;28;20204;-84
2023/02/09 07:51:33;;;;;;;75.47;42.53;;;0.20;99.90;;;;;;5097261;28;20179;-84
2023/02/09 07:53:59;;;;;;;79.97;44.70;;;0.50;99.90;;;;;;5105918;28;20234;-83
2023/02/09 07:56:25;;;;;;;77.40;41.80;;;1.00;99.90;;;;;;5106559;27;20423;-86
2023/02/09 07:58:52;;;;;;;80.05;44.22;;;1.60;99.90;;;;;;5106766;28;20781;-83
2023/02/09 08:01:19;;;;;;;89.60;48.58;;;2.20;99.90;;;;;;5111764;28;20187;-86
2023/02/09 08:03:47;;;;;;;83.20;46.25;;;3.10;99.90;;;;;;5104147;28;20754;-82
2023/02/09 08:06:26;;;;;;;69.97;40.17;;;4.00;99.90;;;;;;5100723;27;20655;-83
2023/02/09 08:08:52;;;;;;;59.30;39.03;;;4.90;99.90;;;;;;5102622;28;21041;-84
2023/02/09 08:11:26;;;;;;;65.38;39.47;;;5.90;99.90;;;;;;5084236;28;20172;-83
2023/02/09 08:13:54;;;;;;;59.10;39.08;;;6.90;99.90;;;;;;5106336;28;20228;-87
2023/02/09 08:16:23;;;;;;;61.65;38.63;;;7.90;99.90;;;;;;5102749;28;20267;-87
2023/02/09 08:18:55;;;;;;;45.85;30.75;;;8.60;98.70;;;;;;5104497;28;20188;-87
2023/02/09 08:21:21;;;;;;;51.67;32.80;;;9.30;94.50;;;;;;5104651;28;20172;-87
2023/02/09 08:23:52;;;;;;;36.13;22.00;;;9.90;93.10;;;;;;5108667;28;20620;-85
2023/02/09 08:26:18;;;;;;;43.03;25.95;;;10.00;89.90;;;;;;5109039;27;20172;-84
2023/02/09 08:28:44;;;;;;;31.33;18.35;;;9.80;88.10;;;;;;5082048;28;20654;-84
2023/02/09 08:31:19;;;;;;;29.95;19.80;;;9.30;87.90;;;;;;5108010;28;20188;-86
2023/02/09 08:33:47;;;;;;;29.48;19.17;;;9.00;87.20;;;;;;5108287;27;20223;-85
2023/02/09 08:36:14;;;;;;;29.40;19.55;;;9.50;87.50;;;;;;5093637;28;20230;-85
2023/02/09 08:38:40;;;;;;;31.10;22.48;;;9.70;87.30;;;;;;5091356;28;20843;-86
2023/02/09 08:41:07;;;;;;;30.50;17.60;;;9.90;86.00;;;;;;5110914;28;20183;-84
2023/02/09 08:43:33;;;;;;;26.77;18.83;;;9.60;85.50;;;;;;5086355;28;20472;-87
2023/02/09 08:46:04;;;;;;;28.92;19.05;;;9.90;85.70;;;;;;5104577;28;20554;-83
2023/02/09 08:48:32;;;;;;;26.75;19.75;;;10.40;85.30;;;;;;5104191;28;20219;-85
2023/02/09 08:50:59;;;;;;;70.75;37.40;;;10.60;84.00;;;;;;5086220;28;20830;-84
2023/02/09 08:53:25;;;;;;;35.67;22.57;;;11.20;82.90;;;;;;5084277;28;20212;-85
2023/02/09 08:55:51;;;;;;;25.40;18.50;;;11.00;81.40;;;;;;5082670;28;20469;-85
2023/02/09 08:58:16;;;;;;;22.10;16.80;;;10.70;80.90;;;;;;5104132;28;20454;-85
2023/02/09 09:00:42;;;;;;;21.00;16.93;;;10.50;79.80;;;;;;5102822;28;20417;-85
2023/02/09 09:03:08;;;;;;;25.80;17.90;;;10.00;80.90;;;;;;5084540;28;20296;-85
2023/02/09 09:05:34;;;;;;;23.47;17.10;;;9.40;81.40;;;;;;5101797;28;20184;-84
2023/02/09 09:08:00;;;;;;;26.25;18.33;;;8.90;82.50;;;;;;5104820;28;20205;-84
2023/02/09 09:10:26;;;;;;;24.58;15.15;;;8.80;82.90;;;;;;5097398;28;20183;-84
2023/02/09 09:12:52;;;;;;;26.40;17.55;;;8.70;82.70;;;;;;5079961;28;20238;-84
2023/02/09 09:15:18;;;;;;;30.07;19.20;;;8.50;84.10;;;;;;5097683;28;20192;-83
2023/02/09 09:17:43;;;;;;;25.63;18.40;;;8.00;84.10;;;;;;5103074;28;20200;-84
2023/02/09 09:20:10;;;;;;;29.73;20.77;;;7.60;85.10;;;;;;5079247;28;20810;-83
2023/02/09 09:22:35;;;;;;;25.60;16.88;;;7.40;86.70;;;;;;5078579;28;20204;-84
2023/02/09 09:25:02;;;;;;;26.53;17.57;;;7.80;86.10;;;;;;5098124;28;20621;-84
2023/02/09 09:27:27;;;;;;;24.52;18.30;;;8.10;85.80;;;;;;5080550;28;20199;-84
2023/02/09 09:29:54;;;;;;;25.50;17.67;;;8.10;84.90;;;;;;5079872;28;20180;-84
2023/02/09 09:32:23;;;;;;;26.05;17.52;;;8.10;85.40;;;;;;5102089;28;20198;-85
2023/02/09 09:34:56;;;;;;;36.38;23.73;;;7.90;84.30;;;;;;5084464;28;20585;-85
2023/02/09 09:37:23;;;;;;;31.65;21.10;;;8.10;85.00;;;;;;5089187;28;20302;-84
2023/02/09 09:39:49;;;;;;;31.17;20.48;;;8.50;84.60;;;;;;5084206;28;20208;-85
2023/02/09 09:42:42;;;;;;;30.20;18.70;;;9.30;82.90;;;;;;5076109;28;20198;-86
2023/02/09 09:45:14;;;;;;;28.98;21.05;;;9.70;82.00;;;;;;5089106;28;20188;-83
2023/02/09 09:47:42;;;;;;;29.65;18.40;;;9.20;81.50;;;;;;5099684;28;20681;-83
2023/02/09 09:50:23;;;;;;;28.85;21.25;;;9.00;82.20;;;;;;5102087;28;20257;-83
2023/02/09 09:53:03;;;;;;;27.10;18.90;;;9.30;82.10;;;;;;5109587;28;20199;-85
2023/02/09 09:55:31;;;;;;;29.55;17.80;;;9.60;81.80;;;;;;5093155;28;20183;-84
2023/02/09 09:58:04;;;;;;;31.02;20.50;;;9.40;81.80;;;;;;5091303;28;20192;-84
2023/02/09 10:00:38;;;;;;;25.83;18.13;;;9.30;82.80;;;;;;5101764;28;20172;-86
2023/02/09 10:03:14;;;;;;;28.85;19.45;;;9.50;82.00;;;;;;5097729;28;20242;-85
2023/02/09 10:05:40;;;;;;;28.13;18.05;;;9.60;81.70;;;;;;5110536;28;20232;-84
2023/02/09 10:08:11;;;;;;;29.98;20.00;;;9.50;81.60;;;;;;5109631;28;20204;-84
2023/02/09 10:10:39;;;;;;;28.00;19.85;;;9.20;82.00;;;;;;5107991;28;20264;-84
2023/02/09 10:13:43;;;;;;;28.05;20.60;;;8.90;82.50;;;;;;5086819;28;20313;-84
2023/02/09 10:16:23;;;;;;;25.73;18.77;;;8.80;83.60;;;;;;5061978;28;20371;-84
2023/02/09 10:18:58;;;;;;;31.27;20.75;;;8.20;83.60;;;;;;5080763;28;20739;-84
2023/02/09 10:21:30;;;;;;;30.70;19.23;;;7.50;86.20;;;;;;5083681;28;20263;-85
2023/02/09 10:24:09;;;;;;;28.95;20.92;;;7.30;87.10;;;;;;5085335;28;20205;-84
2023/02/09 10:26:36;;;;;;;26.98;18.30;;;7.20;88.00;;;;;;5080590;28;20184;-84
2023/02/09 10:29:10;;;;;;;29.75;19.63;;;7.30;87.50;;;;;;5086693;28;20200;-84
2023/02/09 10:31:42;;;;;;;30.40;20.23;;;7.30;86.90;;;;;;5084067;28;20422;-84
2023/02/09 10:34:07;;;;;;;31.15;21.17;;;6.80;87.10;;;;;;5087462;28;20184;-84
2023/02/09 10:36:44;;;;;;;32.23;19.63;;;6.50;89.20;;;;;;5081488;28;20267;-84
2023/02/09 10:39:10;;;;;;;27.15;18.75;;;6.50;89.90;;;;;;5086167;28;20187;-85
2023/02/09 10:41:38;;;;;;;29.93;20.03;;;6.50;89.70;;;;;;5080888;28;20263;-83
2023/02/09 10:44:18;;;;;;;31.10;19.40;;;6.50;90.00;;;;;;5087716;28;20208;-85
2023/02/09 10:46:46;;;;;;;32.08;18.50;;;6.20;90.20;;;;;;5093127;28;20214;-84
2023/02/09 10:49:34;;;;;;;34.70;23.67;;;6.30;90.40;;;;;;5089963;28;20229;-83
2023/02/09 10:52:18;;;;;;;18.77;10.95;;;6.40;90.20;;;;;;5082759;28;20181;-85
2023/02/09 10:54:50;;;;;;;24.55;16.85;;;6.20;89.50;;;;;;5080623;28;20203;-84
2023/02/09 10:57:28;;;;;;;30.42;17.25;;;5.70;90.30;;;;;;5079088;28;20415;-83
2023/02/09 10:59:59;;;;;;;28.92;18.55;;;5.60;90.80;;;;;;5081325;28;20184;-84
2023/02/09 11:02:36;;;;;;;28.55;18.10;;;5.70;90.70;;;;;;5087572;28;20722;-84
2023/02/09 11:05:20;;;;;;;26.90;17.58;;;5.60;91.10;;;;;;5079943;28;20246;-84
2023/02/09 11:08:13;;;;;;;22.55;15.00;;;5.90;90.90;;;;;;5085511;28;20201;-84
2023/02/09 11:11:05;;;;;;;28.02;17.02;;;6.00;90.80;;;;;;5084946;28;20232;-84
2023/02/09 11:13:33;;;;;;;23.10;14.18;;;6.20;90.30;;;;;;5082732;28;20258;-83
2023/02/09 11:16:14;;;;;;;27.13;16.38;;;6.20;89.90;;;;;;5089757;28;20185;-84
2023/02/09 11:18:42;;;;;;;22.55;14.85;;;6.10;90.10;;;;;;5079067;28;20204;-84
2023/02/09 11:21:16;;;;;;;20.02;13.77;;;6.20;90.10;;;;;;5082215;28;20229;-84
2023/02/09 11:23:55;;;;;;;25.63;16.52;;;6.20;89.60;;;;;;5086609;28;20219;-84
2023/02/09 11:26:54;;;;;;;19.90;14.18;;;6.30;89.60;;;;;;5084656;28;20279;-83
2023/02/09 11:29:24;;;;;;;19.48;13.45;;;6.20;90.00;;;;;;5086601;28;20207;-84
2023/02/09 11:32:03;;;;;;;21.63;14.13;;;6.30;89.40;;;;;;5087052;28;20195;-85
2023/02/09 11:35:05;;;;;;;22.42;14.00;;;6.30;89.60;;;;;;5085762;28;20181;-84
2023/02/09 11:38:05;;;;;;;22.33;15.50;;;6.40;89.00;;;;;;5081222;28;20200;-84
2023/02/09 11:40:38;;;;;;;20.38;12.55;;;6.40;89.50;;;;;;5081280;28;20185;-84
2023/02/09 11:43:25;;;;;;;24.65;15.20;;;6.50;88.60;;;;;;5076697;28;20235;-84
2023/02/09 11:45:58;;;;;;;24.15;15.20;;;6.60;88.40;;;;;;5082379;28;20716;-84
2023/02/09 11:48:31;;;;;;;19.17;12.73;;;6.70;88.40;;;;;;5080250;28;20550;-84
2023/02/09 11:51:14;;;;;;;22.75;14.02;;;6.60;88.40;;;;;;5080118;28;20187;-83
2023/02/09 11:54:07;;;;;;;25.67;15.32;;;6.60;88.40;;;;;;5082981;28;20660;-83
2023/02/09 11:56:40;;;;;;;25.95;16.15;;;6.40;88.50;;;;;;5085428;28;20197;-82
2023/02/09 11:59:25;;;;;;;21.27;13.98;;;6.10;88.80;;;;;;5082496;28;20197;-84
2023/02/09 12:01:59;;;;;;;18.42;12.93;;;6.00;89.40;;;;;;5075140;28;20192;-84
2023/02/09 12:04:39;;;;;;;20.50;13.70;;;6.10;89.20;;;;;;5076570;28;20242;-84
2023/02/09 12:07:11;;;;;;;21.83;14.25;;;6.40;89.90;;;;;;5079188;28;20200;-84
2023/02/09 12:09:56;;;;;;;21.05;13.85;;;6.50;90.10;;;;;;5077232;28;20180;-83
2023/02/09 12:12:30;;;;;;;21.80;13.07;;;6.50;89.90;;;;;;5083072;28;20628;-84
2023/02/09 12:15:25;;;;;;;21.75;14.38;;;6.40;89.20;;;;;;5064067;28;20713;-84
2023/02/09 12:18:02;;;;;;;19.60;11.63;;;6.50;88.20;;;;;;5066628;28;20293;-84
2023/02/09 12:20:37;;;;;;;21.48;13.38;;;6.60;87.70;;;;;;5081322;28;20523;-83
2023/02/09 12:23:14;;;;;;;20.58;13.18;;;6.70;87.10;;;;;;5091924;28;20619;-84
2023/02/09 12:25:49;;;;;;;19.00;13.40;;;6.80;86.80;;;;;;5082151;27;20188;-85
2023/02/09 12:28:37;;;;;;;22.30;13.13;;;6.90;86.90;;;;;;5067577;28;20267;-84
2023/02/09 12:31:17;;;;;;;21.45;13.85;;;6.90;87.20;;;;;;5066144;28;20551;-85
2023/02/09 12:33:46;;;;;;;24.25;14.55;;;6.90;87.40;;;;;;5065249;28;20200;-86
2023/02/09 12:36:12;;;;;;;23.02;15.93;;;6.90;87.60;;;;;;5066884;28;20315;-85
2023/02/09 12:38:49;;;;;;;22.67;15.10;;;6.80;88.30;;;;;;5060243;28;20265;-85
2023/02/09 12:41:41;;;;;;;20.55;15.10;;;6.80;89.60;;;;;;5065872;28;20525;-85
2023/02/09 12:44:10;;;;;;;22.98;14.52;;;6.70;88.00;;;;;;5071857;28;20200;-85
2023/02/09 12:46:46;;;;;;;26.35;17.15;;;6.60;88.80;;;;;;5061819;28;20200;-83